Time;durP1;ratioP1;P1;durP2;ratioP2;P2;SDS_P1;SDS_P2;PMS_P1;PMS_P2;Temp;Humidity;BMP_temperature;BMP_pressure;BME280_temperature;BME280_humidity;BME280_pressure;Samples;Min_cycle;Max_cycle;Signal;HPM_P1;HPM_P2
2023/02/04 00:00:21;;;;;;;5.87;4.20;;;6.90;99.90;;;9.15;66.88;98820.88;5033554;28;20402;-48
2023/02/04 00:02:49;;;;;;;7.83;4.73;;;6.90;99.90;;;9.15;66.90;98835.03;5033669;28;20048;-50
2023/02/04 00:05:18;;;;;;;5.30;4.23;;;6.90;99.90;;;8.94;67.83;98834.94;5032987;28;20049;-53
2023/02/04 00:07:45;;;;;;;7.07;5.00;;;6.90;99.90;;;9.00;67.68;98836.25;5033595;28;20038;-47
2023/02/04 00:10:13;;;;;;;4.83;3.50;;;6.90;99.90;;;9.12;67.39;98845.06;5033428;28;20049;-49
2023/02/04 00:12:40;;;;;;;5.70;4.00;;;6.90;99.90;;;8.99;68.00;98826.59;5032323;28;20516;-46
2023/02/04 00:15:09;;;;;;;6.17;4.30;;;6.90;99.90;;;9.16;67.11;98823.44;5033720;28;20432;-49
2023/02/04 00:17:38;;;;;;;6.33;3.33;;;6.90;99.90;;;9.41;66.25;98827.59;5032907;28;20060;-51
2023/02/04 00:20:06;;;;;;;5.17;3.80;;;7.00;99.90;;;9.38;66.39;98859.75;5033387;28;20443;-49
2023/02/04 00:22:33;;;;;;;6.53;3.93;;;7.00;99.90;;;9.69;65.82;98857.22;5032169;28;20050;-50
2023/02/04 00:25:01;;;;;;;5.50;4.27;;;7.00;99.90;;;9.59;65.97;98866.94;5031993;28;20045;-50
2023/02/04 00:27:28;;;;;;;6.93;3.93;;;7.00;99.90;;;9.76;65.51;98863.75;5033289;28;20412;-51
2023/02/04 00:29:56;;;;;;;5.30;3.60;;;7.10;99.90;;;9.63;65.90;98876.34;5033410;28;20042;-48
2023/02/04 00:32:24;;;;;;;6.10;3.50;;;7.10;99.90;;;9.66;65.40;98866.31;5023802;28;20416;-51
2023/02/04 00:34:53;;;;;;;4.83;3.47;;;7.00;99.90;;;9.45;66.20;98858.28;5032131;28;20041;-50
2023/02/04 00:37:21;;;;;;;6.90;4.10;;;7.00;99.90;;;9.56;65.66;98873.38;5032525;28;20046;-48
2023/02/04 00:39:49;;;;;;;6.00;4.50;;;7.00;99.90;;;9.74;65.39;98865.69;5031845;28;20065;-51
2023/02/04 00:42:17;;;;;;;5.83;4.10;;;7.10;99.90;;;9.79;64.97;98882.13;5031668;28;20050;-46
2023/02/04 00:44:44;;;;;;;6.90;4.80;;;7.10;99.90;;;9.83;64.86;98877.41;5031524;28;20049;-51
2023/02/04 00:47:12;;;;;;;6.03;4.00;;;7.10;99.90;;;9.68;65.42;98878.66;5033082;28;20053;-47
2023/02/04 00:49:39;;;;;;;7.17;4.53;;;7.00;99.90;;;9.74;65.53;98881.66;5033044;28;20045;-51
2023/02/04 00:52:07;;;;;;;7.80;5.27;;;7.00;99.90;;;9.81;64.95;98871.38;5023166;28;20285;-53
2023/02/04 00:54:34;;;;;;;7.10;4.93;;;7.10;99.90;;;9.89;64.83;98870.69;5032175;28;20489;-49
2023/02/04 00:57:02;;;;;;;6.67;4.97;;;7.10;99.90;;;9.91;64.96;98871.44;5032107;28;20045;-49
2023/02/04 00:59:30;;;;;;;5.97;4.40;;;7.10;99.90;;;9.81;65.00;98879.34;5031465;28;20057;-48
2023/02/04 01:01:59;;;;;;;8.03;5.07;;;7.00;99.90;;;9.79;65.22;98875.94;5028060;28;20048;-50
2023/02/04 01:04:28;;;;;;;8.67;5.90;;;7.00;99.90;;;9.82;65.29;98886.34;5024958;28;20037;-49
2023/02/04 01:06:56;;;;;;;6.20;4.80;;;7.00;99.90;;;9.59;65.79;98874.91;5032749;28;20049;-50
2023/02/04 01:09:23;;;;;;;8.53;4.33;;;7.00;99.90;;;9.64;65.71;98876.22;5032917;28;20041;-49
2023/02/04 01:11:51;;;;;;;8.00;4.60;;;7.00;99.90;;;9.41;66.29;98887.91;5031345;28;20413;-50
2023/02/04 01:14:19;;;;;;;6.83;4.30;;;6.90;99.90;;;9.59;65.87;98880.22;5032440;28;20049;-50
2023/02/04 01:16:46;;;;;;;6.17;3.37;;;6.90;99.90;;;9.53;65.51;98878.91;5032489;28;20053;-49
2023/02/04 01:19:14;;;;;;;4.47;2.90;;;6.90;99.90;;;9.56;65.05;98881.34;5031388;28;20424;-53
2023/02/04 01:21:41;;;;;;;4.90;3.37;;;6.90;99.90;;;9.44;65.19;98892.94;5032355;28;20033;-52
2023/02/04 01:24:11;;;;;;;4.83;3.30;;;7.00;99.90;;;9.46;65.23;98893.69;5030899;28;20064;-54
2023/02/04 01:26:57;;;;;;;3.87;2.57;;;6.90;99.90;;;9.39;65.58;98895.16;5032897;28;20079;-46
2023/02/04 01:29:24;;;;;;;3.07;1.57;;;6.90;99.90;;;9.03;66.01;98907.72;5031826;28;20425;-53
2023/02/04 01:31:52;;;;;;;3.23;1.80;;;6.90;99.90;;;8.95;66.61;98902.16;5031041;28;20509;-47
2023/02/04 01:34:19;;;;;;;7.33;3.73;;;6.80;99.90;;;9.03;65.95;98897.09;5030757;28;20053;-50
2023/02/04 01:36:48;;;;;;;5.33;2.30;;;6.80;99.90;;;9.13;65.55;98900.72;5029377;28;20532;-48
2023/02/04 01:39:17;;;;;;;2.63;1.73;;;6.80;99.90;;;9.05;65.47;98913.75;5031752;28;20056;-49
2023/02/04 01:41:46;;;;;;;4.23;2.13;;;6.70;99.90;;;9.20;65.05;98901.91;5030570;28;20048;-51
2023/02/04 01:44:14;;;;;;;2.50;1.77;;;6.70;99.90;;;9.19;65.22;98904.69;5030583;28;20449;-52
2023/02/04 01:46:41;;;;;;;2.87;1.87;;;6.70;99.90;;;9.17;65.28;98914.59;5030818;28;20049;-47
2023/02/04 01:49:10;;;;;;;4.00;2.10;;;6.70;99.90;;;9.40;64.65;98905.66;5014127;28;20430;-50
2023/02/04 01:51:38;;;;;;;7.20;2.30;;;6.80;99.90;;;9.26;64.31;98909.41;5030477;28;20493;-51
2023/02/04 01:54:11;;;;;;;2.90;1.60;;;6.70;99.90;;;9.34;63.71;98910.59;5030810;28;20060;-47
2023/02/04 01:56:43;;;;;;;4.43;1.93;;;6.70;99.90;;;9.18;64.00;98908.34;5030660;28;20037;-51
2023/02/04 01:59:13;;;;;;;4.30;1.57;;;6.60;99.90;;;9.16;63.90;98916.41;5030424;28;20053;-47
2023/02/04 02:01:48;;;;;;;5.73;2.00;;;6.60;99.90;;;9.20;63.84;98912.53;5013703;28;20042;-53
2023/02/04 02:04:32;;;;;;;6.43;1.50;;;6.60;99.90;;;8.85;64.51;98899.38;5031541;28;20057;-49
2023/02/04 02:07:04;;;;;;;3.87;1.70;;;6.40;99.90;;;8.95;64.34;98910.13;5029226;28;20046;-48
2023/02/04 02:09:33;;;;;;;3.33;1.57;;;6.40;99.90;;;8.83;64.75;98917.25;5006463;28;20497;-52
2023/02/04 02:12:03;;;;;;;4.93;1.53;;;6.40;99.90;;;8.84;64.80;98924.25;5030480;28;20049;-49
2023/02/04 02:14:30;;;;;;;6.10;1.87;;;6.40;99.90;;;8.83;64.83;98910.13;5022541;28;20053;-46
2023/02/04 02:16:58;;;;;;;6.47;1.67;;;6.40;99.90;;;8.81;65.09;98916.53;5030306;28;20057;-48
2023/02/04 02:19:35;;;;;;;4.63;1.80;;;6.40;99.90;;;8.92;64.65;98921.84;5030204;28;20049;-48
2023/02/04 02:22:28;;;;;;;4.83;1.70;;;6.40;99.90;;;8.57;65.53;98921.91;5013559;28;20045;-48
2023/02/04 02:24:55;;;;;;;4.17;1.30;;;6.40;99.90;;;8.61;65.39;98912.75;5041750;28;20042;-48
2023/02/04 02:27:23;;;;;;;5.30;1.70;;;6.30;99.90;;;8.70;65.19;98916.50;5031023;28;20045;-48
2023/02/04 02:29:51;;;;;;;3.10;1.60;;;6.30;99.90;;;8.74;65.28;98916.13;5029434;28;20415;-50
2023/02/04 02:32:19;;;;;;;8.80;2.10;;;6.30;99.90;;;8.61;65.91;98920.72;5029673;28;20046;-50
2023/02/04 02:34:46;;;;;;;2.70;1.10;;;6.30;99.90;;;8.57;66.01;98927.22;5030334;28;20069;-50
2023/02/04 02:37:14;;;;;;;2.23;1.30;;;6.20;99.90;;;8.71;65.61;98927.00;5029873;28;20547;-48
2023/02/04 02:39:44;;;;;;;3.77;1.43;;;6.20;99.90;;;8.70;65.59;98951.84;5029889;28;20049;-51
2023/02/04 02:42:16;;;;;;;4.87;1.60;;;6.20;99.90;;;8.77;65.36;98953.09;5029586;28;20517;-50
2023/02/04 02:44:45;;;;;;;6.27;2.77;;;6.20;99.90;;;8.98;64.79;98945.28;5029595;28;20045;-47
2023/02/04 02:47:18;;;;;;;10.87;2.33;;;6.30;99.90;;;8.95;65.03;98932.22;5029436;28;20053;-50
2023/02/04 02:49:48;;;;;;;4.33;2.83;;;6.30;99.90;;;8.79;65.22;98927.25;5021932;28;20527;-47
2023/02/04 02:52:17;;;;;;;3.83;1.87;;;6.20;99.90;;;8.87;65.17;98932.81;5028677;28;20049;-48
2023/02/04 02:54:46;;;;;;;8.23;2.37;;;6.20;99.90;;;8.97;64.83;98951.53;5029966;28;20064;-47
2023/02/04 02:57:21;;;;;;;3.60;2.00;;;6.20;99.90;;;8.94;64.95;98938.50;5029618;28;20049;-47
2023/02/04 02:59:49;;;;;;;6.10;1.90;;;6.20;99.90;;;9.04;64.59;98923.53;5013710;28;20056;-47
2023/02/04 03:02:21;;;;;;;12.07;3.27;;;6.20;99.90;;;8.73;65.73;98933.06;5030422;28;20045;-53
2023/02/04 03:04:56;;;;;;;9.07;3.40;;;6.20;99.90;;;8.59;66.08;98930.63;5005887;28;20045;-50
2023/02/04 03:07:28;;;;;;;4.60;1.90;;;6.10;99.90;;;8.68;65.76;98927.25;5029568;28;20532;-49
2023/02/04 03:09:55;;;;;;;3.27;1.80;;;6.10;99.90;;;8.87;65.27;98942.59;5031141;28;20041;-46
2023/02/04 03:12:23;;;;;;;6.77;2.27;;;6.10;99.90;;;8.82;65.46;98945.63;5030560;28;20050;-48
2023/02/04 03:14:51;;;;;;;5.37;2.13;;;6.10;99.90;;;8.99;64.97;98948.78;5029700;28;20045;-51
2023/02/04 03:17:21;;;;;;;6.37;2.10;;;6.20;99.90;;;8.93;65.10;98966.03;5029296;28;20064;-49
2023/02/04 03:19:49;;;;;;;8.13;2.50;;;6.20;99.90;;;9.07;64.92;98968.47;5029763;28;20065;-51
2023/02/04 03:22:17;;;;;;;7.03;3.70;;;6.20;99.90;;;9.12;64.70;98965.44;5029215;28;20050;-49
2023/02/04 03:24:45;;;;;;;9.97;2.73;;;6.20;99.90;;;9.03;64.73;98982.09;5013617;28;20041;-49
2023/02/04 03:27:14;;;;;;;14.13;3.60;;;6.20;99.90;;;9.11;64.63;98990.34;5029569;28;20045;-53
2023/02/04 03:29:43;;;;;;;8.03;2.63;;;6.20;99.90;;;9.20;64.25;98991.41;5029431;28;20416;-47
2023/02/04 03:32:11;;;;;;;8.57;3.00;;;6.20;99.90;;;9.19;64.47;99001.22;5030181;28;20068;-47
2023/02/04 03:34:39;;;;;;;6.57;2.57;;;6.30;99.90;;;9.26;63.92;98999.75;5030655;28;20052;-47
2023/02/04 03:37:06;;;;;;;6.67;2.53;;;6.30;99.90;;;9.30;63.81;99005.66;5030289;28;20060;-48
2023/02/04 03:39:34;;;;;;;7.13;2.43;;;6.30;99.90;;;9.35;63.66;99006.16;5029320;28;20053;-48
2023/02/04 03:42:02;;;;;;;4.63;3.20;;;6.30;99.90;;;9.11;64.44;99014.25;5033774;28;20041;-48
2023/02/04 03:44:29;;;;;;;9.70;2.40;;;6.20;99.90;;;9.20;64.26;99013.53;5033887;28;20417;-52
2023/02/04 03:46:58;;;;;;;7.53;2.53;;;6.20;99.90;;;9.12;64.51;99009.78;5034079;28;20263;-49
2023/02/04 03:49:27;;;;;;;4.47;2.40;;;6.20;99.90;;;9.29;64.10;99013.78;5033871;28;20060;-49
2023/02/04 03:51:54;;;;;;;6.30;2.43;;;6.20;99.90;;;9.35;63.92;99021.28;5033772;28;20053;-52
2023/02/04 03:54:22;;;;;;;6.07;3.73;;;6.30;99.90;;;9.32;63.68;99025.00;5032843;28;20480;-51
2023/02/04 03:56:49;;;;;;;4.83;2.63;;;6.30;99.90;;;9.40;63.79;99030.59;5034122;28;20413;-48
2023/02/04 03:59:17;;;;;;;9.90;2.70;;;6.40;99.90;;;9.37;64.00;99030.81;5033035;28;20053;-51
2023/02/04 04:01:45;;;;;;;5.97;2.77;;;6.40;99.90;;;9.38;63.54;99031.66;5032343;28;20421;-48
2023/02/04 04:04:12;;;;;;;9.17;3.43;;;6.40;99.90;;;9.34;63.83;99032.88;5032426;28;20042;-47
2023/02/04 04:06:40;;;;;;;5.03;3.67;;;6.40;99.90;;;9.38;63.72;99031.66;5033832;28;20408;-51
2023/02/04 04:09:07;;;;;;;6.60;3.70;;;6.40;99.90;;;9.44;63.78;99028.50;5032968;28;20094;-51
2023/02/04 04:11:35;;;;;;;4.87;2.90;;;6.40;99.90;;;9.42;63.63;99030.44;5033657;28;20041;-51
2023/02/04 04:14:02;;;;;;;6.57;3.00;;;6.30;99.90;;;9.42;63.59;99027.78;5033662;28;20417;-46
2023/02/04 04:16:30;;;;;;;6.67;2.77;;;6.40;99.90;;;9.40;63.71;99024.41;5033580;28;20038;-47
2023/02/04 04:18:58;;;;;;;8.80;2.73;;;6.30;99.90;;;9.48;63.54;99029.13;5033452;28;20041;-48
2023/02/04 04:21:25;;;;;;;6.23;2.67;;;6.30;99.90;;;9.36;63.63;99031.75;5031143;28;20050;-48
2023/02/04 04:23:53;;;;;;;5.87;2.70;;;6.30;99.90;;;9.29;63.93;99032.41;5033558;28;20049;-49
2023/02/04 04:26:20;;;;;;;6.57;3.60;;;6.20;99.90;;;9.34;63.91;99023.06;5033344;28;20050;-51
2023/02/04 04:28:48;;;;;;;6.50;3.00;;;6.30;99.90;;;9.37;63.80;99020.19;5033493;28;20397;-50
2023/02/04 04:31:16;;;;;;;7.57;3.20;;;6.30;99.90;;;9.41;63.60;99028.78;5032077;28;20061;-47
2023/02/04 04:33:43;;;;;;;6.60;2.53;;;6.30;99.90;;;9.42;63.36;99039.28;5032812;28;20046;-49
2023/02/04 04:36:11;;;;;;;6.47;2.87;;;6.30;99.90;;;9.37;63.54;99041.44;5033304;28;20064;-50
2023/02/04 04:38:39;;;;;;;6.33;3.20;;;6.30;99.90;;;9.27;63.82;99045.78;5025216;28;20413;-51
2023/02/04 04:41:06;;;;;;;4.57;3.07;;;6.20;99.90;;;9.18;63.98;99051.81;5031812;28;20052;-49
2023/02/04 04:43:34;;;;;;;7.23;3.90;;;6.10;99.90;;;9.16;63.97;99048.44;5031816;28;20401;-51
2023/02/04 04:46:01;;;;;;;4.93;3.07;;;6.10;99.90;;;9.25;63.78;99061.84;5033210;28;20038;-50
2023/02/04 04:48:29;;;;;;;9.37;3.50;;;6.10;99.90;;;9.25;63.68;99059.19;5032896;28;20046;-49
2023/02/04 04:50:57;;;;;;;7.90;3.67;;;6.10;99.90;;;9.30;63.25;99055.34;5033064;28;20524;-49
2023/02/04 04:53:24;;;;;;;6.23;3.57;;;6.10;99.90;;;9.31;63.32;99062.34;5032558;28;20080;-50
2023/02/04 04:55:52;;;;;;;5.07;3.60;;;6.10;99.90;;;9.27;63.17;99049.28;5033392;28;20045;-47
2023/02/04 04:58:20;;;;;;;9.67;4.17;;;6.10;99.90;;;9.35;62.95;99056.66;5031756;28;20057;-51
2023/02/04 05:00:47;;;;;;;7.10;3.77;;;6.20;99.90;;;9.41;62.69;99061.50;5031441;28;20508;-50
2023/02/04 05:03:15;;;;;;;9.27;4.40;;;6.20;99.90;;;9.44;62.94;99063.94;5032267;28;20413;-52
2023/02/04 05:05:43;;;;;;;7.23;3.50;;;6.30;99.90;;;9.46;62.93;99056.69;5032649;28;20046;-49
2023/02/04 05:08:12;;;;;;;7.33;3.80;;;6.20;99.90;;;9.36;62.86;99055.69;5030965;28;20045;-48
2023/02/04 05:10:40;;;;;;;8.17;4.03;;;6.20;99.90;;;9.26;63.35;99063.53;5032628;28;20048;-52
2023/02/04 05:13:09;;;;;;;7.07;3.63;;;6.10;99.90;;;9.36;63.13;99053.03;5032402;28;20054;-48
2023/02/04 05:15:37;;;;;;;8.90;4.20;;;6.10;99.90;;;9.37;62.98;99060.06;5032628;28;20045;-49
2023/02/04 05:18:04;;;;;;;8.53;3.77;;;6.20;99.90;;;9.37;62.69;99061.88;5032381;28;20056;-48
2023/02/04 05:20:32;;;;;;;8.53;4.23;;;6.20;99.90;;;9.38;62.97;99061.75;5032482;28;20041;-51
2023/02/04 05:23:00;;;;;;;7.20;3.60;;;6.20;99.90;;;9.31;62.72;99059.69;5032028;28;20046;-52
2023/02/04 05:25:28;;;;;;;14.63;4.47;;;6.10;99.90;;;9.25;62.86;99067.16;5032489;28;20049;-49
2023/02/04 05:27:55;;;;;;;12.03;4.27;;;6.10;99.90;;;9.22;63.19;99074.53;5032592;28;20068;-52
2023/02/04 05:30:23;;;;;;;11.50;4.73;;;6.10;99.90;;;9.30;62.95;99073.94;5031181;28;20041;-49
2023/02/04 05:32:50;;;;;;;9.37;4.53;;;6.10;99.90;;;9.33;62.84;99082.53;5031904;28;20049;-47
2023/02/04 05:35:18;;;;;;;10.57;5.57;;;6.20;99.90;;;9.40;62.76;99080.22;5032104;28;20509;-49
2023/02/04 05:37:46;;;;;;;10.97;6.23;;;6.20;99.90;;;9.48;62.52;99076.97;5032175;28;20417;-48
2023/02/04 05:40:13;;;;;;;10.90;5.00;;;6.20;99.90;;;9.46;62.54;99083.28;5032040;28;20046;-50
2023/02/04 05:42:41;;;;;;;13.77;6.10;;;6.30;99.90;;;9.50;62.32;99078.56;5030470;28;20034;-49
2023/02/04 05:45:15;;;;;;;10.20;4.97;;;6.30;99.90;;;9.49;62.61;99082.19;5030768;28;20049;-45
2023/02/04 05:47:42;;;;;;;11.63;5.15;;;6.30;99.90;;;9.52;62.58;99079.28;5030930;28;20040;-48
2023/02/04 05:50:10;;;;;;;8.87;5.40;;;6.30;99.90;;;9.40;62.42;99061.63;5031965;28;20071;-46
2023/02/04 05:52:37;;;;;;;9.20;5.30;;;6.20;99.90;;;9.41;62.82;99084.59;5029932;28;20045;-49
2023/02/04 05:55:06;;;;;;;14.90;4.60;;;6.20;99.90;;;9.43;62.63;99085.31;5032033;28;20046;-49
2023/02/04 05:57:34;;;;;;;18.47;6.73;;;6.20;99.90;;;9.45;62.86;99091.34;5031544;28;20060;-46
2023/02/04 06:00:02;;;;;;;11.03;4.07;;;6.20;99.90;;;9.45;62.69;99092.19;5031768;28;20056;-49
2023/02/04 06:02:38;;;;;;;14.03;5.17;;;6.20;99.90;;;9.43;62.84;99098.59;5031396;28;20123;-48
2023/02/04 06:05:06;;;;;;;15.60;5.90;;;6.20;99.90;;;9.35;62.54;99106.31;5030960;28;20052;-47
2023/02/04 06:07:33;;;;;;;14.50;5.83;;;6.20;99.90;;;9.36;62.71;99108.84;5030533;28;20042;-48
2023/02/04 06:10:01;;;;;;;14.43;5.40;;;6.10;99.90;;;9.22;62.73;99117.03;5030447;28;20436;-51
2023/02/04 06:12:28;;;;;;;11.43;4.93;;;6.00;99.90;;;9.27;62.81;99126.34;5031151;28;20263;-48
2023/02/04 06:14:56;;;;;;;18.47;4.97;;;6.00;99.90;;;9.31;62.72;99110.19;5031402;28;20048;-48
2023/02/04 06:17:24;;;;;;;9.80;4.70;;;6.10;99.90;;;9.38;62.70;99124.69;5031469;28;20048;-47
2023/02/04 06:19:51;;;;;;;12.13;5.07;;;6.20;99.90;;;9.37;62.45;99120.34;5031483;28;20393;-49
2023/02/04 06:22:19;;;;;;;14.93;5.27;;;6.10;99.90;;;9.31;62.60;99139.44;5030925;28;20060;-51
2023/02/04 06:24:46;;;;;;;12.33;5.83;;;6.10;99.90;;;9.23;62.72;99132.88;5031517;28;20402;-50
2023/02/04 06:27:17;;;;;;;17.27;6.93;;;6.00;99.90;;;9.25;62.35;99146.06;5031420;28;20212;-46
2023/02/04 06:29:44;;;;;;;10.77;6.13;;;6.00;99.90;;;9.22;62.50;99149.75;5031380;28;20033;-48
2023/02/04 06:32:12;;;;;;;10.93;5.37;;;6.00;99.90;;;9.26;62.72;99140.59;5030161;28;20497;-47
2023/02/04 06:34:39;;;;;;;11.07;5.00;;;6.10;99.90;;;9.33;62.40;99148.13;5031218;28;20049;-46
2023/02/04 06:37:07;;;;;;;11.10;4.93;;;6.10;99.90;;;9.13;62.74;99145.16;5031368;28;20448;-51
2023/02/04 06:39:35;;;;;;;12.77;4.83;;;6.00;99.90;;;9.18;62.39;99140.34;5030856;28;20050;-49
2023/02/04 06:42:02;;;;;;;11.40;5.77;;;5.90;99.90;;;9.20;62.61;99141.06;5030761;28;20056;-49
2023/02/04 06:44:30;;;;;;;12.63;5.13;;;6.00;99.90;;;9.16;62.33;99146.75;5029945;28;20059;-46
2023/02/04 06:46:58;;;;;;;16.07;5.97;;;5.90;99.90;;;9.13;62.61;99142.50;5031206;28;20100;-50
2023/02/04 06:49:25;;;;;;;13.37;5.97;;;6.00;99.90;;;9.12;62.40;99156.75;5030913;28;20357;-49
2023/02/04 06:51:54;;;;;;;13.77;5.27;;;5.90;99.90;;;9.10;62.33;99161.31;5030904;28;20064;-47
2023/02/04 06:54:21;;;;;;;14.27;5.40;;;5.90;99.90;;;9.10;62.37;99169.28;5030505;28;20608;-49
2023/02/04 06:56:49;;;;;;;12.60;5.20;;;5.90;99.90;;;9.07;62.77;99173.03;5030967;28;20045;-47
2023/02/04 06:59:16;;;;;;;12.47;5.03;;;5.90;99.90;;;8.86;62.81;99180.78;5030577;28;20421;-50
2023/02/04 07:01:44;;;;;;;12.17;5.83;;;5.80;99.90;;;8.82;63.05;99163.38;5030484;28;20045;-49
2023/02/04 07:04:11;;;;;;;15.03;5.40;;;5.70;99.90;;;8.84;63.10;99173.88;5026640;28;20042;-51
2023/02/04 07:06:39;;;;;;;14.93;5.87;;;5.70;99.90;;;8.82;62.87;99175.78;5030920;28;20549;-46
2023/02/04 07:09:06;;;;;;;11.83;4.80;;;5.70;99.90;;;8.91;62.96;99180.44;5030645;28;20064;-47
2023/02/04 07:11:34;;;;;;;17.27;6.33;;;5.80;99.90;;;8.96;62.64;99174.81;5030333;28;20056;-46
2023/02/04 07:14:01;;;;;;;14.03;6.13;;;5.80;99.90;;;8.83;63.44;99181.00;5030674;28;20497;-49
2023/02/04 07:16:29;;;;;;;13.50;6.70;;;5.70;99.90;;;8.85;62.96;99187.03;5034090;28;20054;-46
2023/02/04 07:18:56;;;;;;;14.67;6.83;;;5.70;99.90;;;8.92;62.57;99211.38;5033523;28;20045;-49
2023/02/04 07:21:24;;;;;;;13.77;6.67;;;5.70;99.90;;;8.99;62.59;99215.25;5034504;28;20069;-49
2023/02/04 07:23:51;;;;;;;13.90;7.00;;;5.80;99.90;;;9.05;62.38;99211.28;5034386;28;20056;-47
2023/02/04 07:26:19;;;;;;;14.27;5.40;;;5.90;99.90;;;9.13;62.56;99208.94;5034546;28;20501;-49
2023/02/04 07:28:47;;;;;;;16.97;7.30;;;6.00;99.90;;;9.22;62.10;99213.53;5034342;28;20041;-49
2023/02/04 07:31:15;;;;;;;16.30;6.53;;;6.00;99.90;;;9.28;62.21;99214.91;5034059;28;20300;-47
2023/02/04 07:33:43;;;;;;;16.73;7.13;;;6.00;99.90;;;9.23;61.97;99215.25;5034079;28;20497;-46
2023/02/04 07:36:10;;;;;;;17.20;6.67;;;6.00;99.90;;;9.26;62.09;99222.13;5034178;28;20412;-49
2023/02/04 07:38:40;;;;;;;13.80;6.70;;;6.00;99.90;;;9.25;62.21;99215.97;5034028;28;20049;-48
2023/02/04 07:41:07;;;;;;;14.03;5.80;;;6.00;99.90;;;9.22;62.17;99213.53;5034001;28;20045;-50
2023/02/04 07:43:35;;;;;;;15.90;6.17;;;6.00;99.90;;;9.22;61.78;99218.00;5033956;28;20413;-46
2023/02/04 07:46:02;;;;;;;19.70;9.07;;;5.90;99.90;;;9.21;61.82;99219.84;5034231;28;20049;-51
2023/02/04 07:48:30;;;;;;;14.30;6.20;;;6.00;99.90;;;9.26;61.67;99232.78;5034005;28;20539;-48
2023/02/04 07:50:57;;;;;;;16.30;6.83;;;6.00;99.90;;;9.24;61.63;99240.00;5033813;28;20057;-47
2023/02/04 07:53:25;;;;;;;20.00;7.40;;;6.00;99.90;;;9.22;61.85;99231.31;5033684;28;20037;-50
2023/02/04 07:55:53;;;;;;;14.47;7.00;;;6.00;99.90;;;9.23;61.91;99247.13;5033995;28;20046;-47
2023/02/04 07:58:21;;;;;;;16.97;7.97;;;6.00;99.90;;;9.25;61.74;99244.38;5033789;28;20056;-48
2023/02/04 08:00:49;;;;;;;19.30;7.87;;;6.00;99.90;;;9.25;61.65;99245.22;5033864;28;20045;-46
2023/02/04 08:03:16;;;;;;;15.60;11.10;;;6.00;99.90;;;9.19;61.55;99248.34;5033177;28;20041;-46
2023/02/04 08:05:44;;;;;;;16.87;8.20;;;5.90;99.90;;;9.19;61.99;99236.84;5033582;28;20112;-49
2023/02/04 08:08:11;;;;;;;15.70;8.97;;;5.90;99.90;;;9.21;61.93;99256.19;5033071;28;20041;-47
2023/02/04 08:10:39;;;;;;;13.10;7.83;;;5.90;99.90;;;9.25;61.83;99260.31;5033430;28;20053;-47
2023/02/04 08:13:06;;;;;;;12.53;6.43;;;6.00;99.90;;;9.30;61.69;99252.84;5033195;28;20045;-50
2023/02/04 08:15:34;;;;;;;16.20;6.50;;;6.00;99.90;;;9.36;61.44;99256.84;5032530;28;20284;-47
2023/02/04 08:18:02;;;;;;;12.90;7.83;;;6.10;99.90;;;9.39;61.55;99257.47;5033690;28;20045;-46
2023/02/04 08:20:30;;;;;;;13.90;9.53;;;6.10;99.90;;;9.35;61.65;99258.66;5034234;28;20057;-46
2023/02/04 08:22:58;;;;;;;17.07;9.00;;;6.00;99.90;;;9.34;61.77;99264.94;5033382;28;20054;-49
2023/02/04 08:25:27;;;;;;;15.73;8.83;;;6.00;99.90;;;9.37;61.79;99270.03;5015406;28;20056;-49
2023/02/04 08:27:55;;;;;;;13.87;8.57;;;6.00;99.90;;;9.38;61.66;99271.75;5032526;28;20049;-48
2023/02/04 08:30:22;;;;;;;13.03;6.63;;;6.10;99.90;;;9.36;61.78;99276.28;5033378;28;20049;-46
2023/02/04 08:32:50;;;;;;;13.77;7.00;;;6.10;99.90;;;9.41;61.50;99273.31;5032921;28;20052;-46
2023/02/04 08:35:17;;;;;;;19.87;6.97;;;6.20;99.90;;;9.44;61.85;99281.91;5032985;28;20049;-51
2023/02/04 08:37:45;;;;;;;12.27;6.77;;;6.20;99.90;;;9.48;61.69;99284.31;5033031;28;20049;-51
2023/02/04 08:40:13;;;;;;;14.93;7.03;;;6.20;99.90;;;9.44;61.65;99286.38;5033147;28;20497;-46
2023/02/04 08:42:40;;;;;;;15.37;7.40;;;6.20;99.90;;;9.38;61.67;99285.03;5031225;28;20045;-50
2023/02/04 08:45:08;;;;;;;12.77;7.27;;;6.20;99.90;;;9.41;61.96;99282.13;5031678;28;20053;-50
2023/02/04 08:47:36;;;;;;;17.37;8.43;;;6.20;99.90;;;9.38;61.79;99295.66;5032859;28;20041;-49
2023/02/04 08:50:04;;;;;;;20.03;8.27;;;6.20;99.90;;;9.24;61.96;99296.66;5032794;28;20037;-47
2023/02/04 08:52:31;;;;;;;19.70;8.37;;;6.10;99.90;;;9.23;62.00;99294.97;5032396;28;20093;-47
2023/02/04 08:54:59;;;;;;;16.60;6.90;;;6.00;99.90;;;9.16;61.86;99292.88;5032697;28;20045;-48
2023/02/04 08:57:26;;;;;;;16.23;10.13;;;6.00;99.90;;;9.16;61.92;99304.34;5032761;28;20053;-50
2023/02/04 08:59:54;;;;;;;18.57;11.93;;;6.00;99.90;;;9.21;62.30;99304.88;5024780;28;20068;-52
2023/02/04 09:02:21;;;;;;;15.67;10.10;;;6.00;99.90;;;9.33;62.19;99311.09;5031286;28;20045;-42
2023/02/04 09:04:49;;;;;;;14.73;8.20;;;6.20;99.90;;;9.39;62.06;99312.47;5031136;28;20502;-48
2023/02/04 09:07:16;;;;;;;20.53;9.50;;;6.20;99.90;;;9.44;61.69;99307.63;5032670;28;20037;-46
2023/02/04 09:09:44;;;;;;;17.23;7.47;;;6.30;99.90;;;9.40;62.16;99316.78;5032649;28;20041;-46
2023/02/04 09:12:11;;;;;;;10.10;6.23;;;6.20;99.90;;;9.48;61.74;99313.56;5031029;28;20060;-47
2023/02/04 09:14:39;;;;;;;18.53;6.93;;;6.30;99.90;;;9.42;61.65;99317.53;5032254;28;20048;-46
2023/02/04 09:17:06;;;;;;;12.93;6.80;;;6.30;99.90;;;9.41;61.81;99319.34;5032381;28;20416;-47
2023/02/04 09:19:34;;;;;;;24.53;10.23;;;6.20;99.90;;;9.36;61.82;99325.97;5031180;28;20080;-48
2023/02/04 09:22:01;;;;;;;19.63;8.23;;;6.20;99.90;;;9.35;62.12;99329.59;5031366;28;20046;-48
2023/02/04 09:24:29;;;;;;;14.80;7.37;;;6.20;99.90;;;9.34;62.26;99330.53;5031979;28;20052;-49
2023/02/04 09:26:56;;;;;;;17.47;6.43;;;6.20;99.90;;;9.33;61.70;99328.84;5032216;28;20406;-47
2023/02/04 09:29:24;;;;;;;16.70;6.87;;;6.20;99.90;;;9.08;62.14;99338.59;5032172;28;20037;-49
2023/02/04 09:31:52;;;;;;;14.00;5.97;;;6.00;99.90;;;9.18;61.81;99339.63;5031795;28;20056;-49
2023/02/04 09:34:20;;;;;;;23.77;11.93;;;6.00;99.90;;;9.23;61.79;99339.31;5031950;28;20041;-46
2023/02/04 09:36:47;;;;;;;17.70;6.27;;;6.10;99.90;;;9.22;61.17;99338.44;5031659;28;20052;-48
2023/02/04 09:39:15;;;;;;;14.07;6.60;;;6.00;99.90;;;9.31;61.39;99347.56;5031714;28;20060;-49
2023/02/04 09:41:42;;;;;;;18.17;9.07;;;6.20;99.90;;;9.51;61.55;99345.25;5031600;28;20037;-45
2023/02/04 09:44:16;;;;;;;21.60;6.20;;;6.30;99.90;;;9.56;61.31;99351.94;5030500;28;20409;-48
2023/02/04 09:46:52;;;;;;;18.58;8.77;;;6.40;99.90;;;9.77;61.06;99361.94;5030334;28;20052;-46
2023/02/04 09:49:20;;;;;;;20.50;7.90;;;6.60;99.90;;;9.86;60.55;99356.78;5030939;28;20052;-46
2023/02/04 09:51:48;;;;;;;12.53;5.43;;;6.70;99.90;;;9.92;60.25;99358.13;5031552;28;20056;-45
2023/02/04 09:54:19;;;;;;;14.93;5.77;;;6.80;99.90;;;9.88;59.80;99361.16;5030259;28;20056;-47
2023/02/04 09:56:47;;;;;;;14.63;5.13;;;6.70;99.90;;;9.84;59.77;99361.38;5030482;28;20049;-47
2023/02/04 09:59:21;;;;;;;21.50;6.73;;;6.60;99.90;;;9.88;59.50;99355.81;5031592;28;20053;-49
2023/02/04 10:02:10;;;;;;;11.67;5.07;;;6.60;99.90;;;9.84;58.54;99357.84;5015270;28;20504;-47
2023/02/04 10:04:38;;;;;;;10.43;4.50;;;6.60;99.90;;;9.82;58.55;99354.47;5034003;28;20049;-46
2023/02/04 10:07:11;;;;;;;17.20;5.50;;;6.50;99.90;;;9.84;58.98;99363.19;5025202;28;20045;-50
2023/02/04 10:09:39;;;;;;;;;;;6.50;99.90;;;9.86;59.05;99356.78;5023916;28;20042;-46
2023/02/04 10:12:07;;;;;;;20.30;7.93;;;6.60;99.90;;;10.01;58.99;99360.09;5024123;28;19932;-46
2023/02/04 10:14:34;;;;;;;13.47;5.60;;;6.70;99.90;;;10.07;58.75;99364.13;5022414;28;20520;-45
2023/02/04 10:17:02;;;;;;;14.10;4.90;;;6.80;99.90;;;10.17;58.28;99364.25;5023096;28;20041;-48
2023/02/04 10:19:30;;;;;;;13.57;4.50;;;6.90;99.90;;;10.31;58.13;99363.25;5025609;28;20045;-46
2023/02/04 10:21:58;;;;;;;8.07;4.40;;;7.00;99.90;;;10.41;57.33;99357.09;5022629;28;20049;-46
2023/02/04 10:24:29;;;;;;;11.67;3.60;;;7.20;99.90;;;10.47;57.07;99355.78;5024177;28;20053;-46
2023/02/04 10:27:10;;;;;;;11.33;3.50;;;7.20;99.90;;;10.60;56.85;99355.66;5025104;28;20053;-47
2023/02/04 10:29:41;;;;;;;11.23;3.20;;;7.30;99.90;;;10.62;56.04;99351.06;5029618;28;20044;-48
2023/02/04 10:32:32;;;;;;;7.67;2.77;;;7.40;99.90;;;10.62;56.20;99351.06;5030647;28;20041;-47
2023/02/04 10:35:01;;;;;;;6.90;2.97;;;7.40;99.90;;;10.64;54.94;99351.78;5030957;28;20041;-48